Time;durP1;ratioP1;P1;durP2;ratioP2;P2;SDS_P1;SDS_P2;PMS_P1;PMS_P2;Temp;Humidity;BMP_temperature;BMP_pressure;BME280_temperature;BME280_humidity;BME280_pressure;Samples;Min_cycle;Max_cycle;Signal;HPM_P1;HPM_P2
2022/01/06 00:03:56;;;;;;;;;;;;;;;3.76;91.73;99511.81;8363059;28;19924;-82
2022/01/06 00:07:57;;;;;;;;;;;;;;;3.75;91.61;99520.19;8375938;28;20400;-83
2022/01/06 00:11:59;;;;;;;;;;;;;;;3.70;92.30;99514.56;8389615;28;20031;-81
2022/01/06 00:16:12;;;;;;;;;;;;;;;3.71;93.18;99511.59;8362882;28;19956;-82
2022/01/06 00:24:34;;;;;;;;;;;;;;;3.67;92.74;99525.88;8381284;28;19963;-81
2022/01/06 00:28:36;;;;;;;;;;;;;;;3.73;93.12;99525.03;8375846;28;19952;-81
2022/01/06 00:32:37;;;;;;;;;;;;;;;3.74;93.39;99515.78;8391571;28;19924;-82
2022/01/06 00:36:40;;;;;;;;;;;;;;;3.75;93.53;99520.19;8376391;28;19979;-81
2022/01/06 00:40:42;;;;;;;;;;;;;;;3.72;93.20;99526.06;8375394;28;19931;-83
2022/01/06 00:44:43;;;;;;;;;;;;;;;3.68;93.36;99528.38;8356295;28;20413;-81
2022/01/06 00:48:44;;;;;;;;;;;;;;;3.67;93.50;99537.63;8382273;28;19927;-82
2022/01/06 00:52:46;;;;;;;;;;;;;;;3.77;93.73;99539.91;8382589;28;20034;-82
2022/01/06 00:56:47;;;;;;;;;;;;;;;3.78;93.88;99547.03;8373142;28;19992;-82
2022/01/06 01:00:49;;;;;;;;;;;;;;;3.79;93.82;99551.44;8368378;28;20023;-82
2022/01/06 01:04:50;;;;;;;;;;;;;;;3.71;94.44;99549.75;8362753;28;19931;-82
2022/01/06 01:08:52;;;;;;;;;;;;;;;3.75;94.78;99551.03;8378160;28;20550;-83
2022/01/06 01:12:53;;;;;;;;;;;;;;;3.82;94.96;99560.00;8364621;28;19991;-83
2022/01/06 01:17:01;;;;;;;;;;;;;;;3.84;95.33;99566.09;8374584;28;19978;-83
2022/01/06 01:21:02;;;;;;;;;;;;;;;3.79;96.12;99573.22;8364468;28;19968;-83
2022/01/06 01:25:04;;;;;;;;;;;;;;;3.68;96.79;99571.13;8382404;28;19924;-83
2022/01/06 01:29:09;;;;;;;;;;;;;;;3.47;98.48;99561.31;8372924;28;19971;-83
2022/01/06 01:33:16;;;;;;;;;;;;;;;3.42;99.30;99573.69;8365540;28;19963;-83
2022/01/06 01:37:17;;;;;;;;;;;;;;;3.43;99.43;99574.50;8355430;28;19956;-83
2022/01/06 01:41:19;;;;;;;;;;;;;;;3.47;99.91;99586.66;8365063;28;19948;-84
2022/01/06 01:45:27;;;;;;;;;;;;;;;3.39;99.45;99589.56;8360201;28;19931;-83
2022/01/06 01:49:46;;;;;;;;;;;;;;;3.38;100.00;99590.63;8380429;28;20433;-84
2022/01/06 01:53:47;;;;;;;;;;;;;;;3.48;100.00;99588.34;8365447;28;20401;-83
2022/01/06 01:57:49;;;;;;;;;;;;;;;3.57;100.00;99599.84;8377034;28;19936;-83
2022/01/06 02:01:53;;;;;;;;;;;;;;;3.56;100.00;99601.75;8370811;28;19921;-84
2022/01/06 02:05:55;;;;;;;;;;;;;;;3.46;100.00;99604.06;8369079;28;20001;-83
2022/01/06 02:09:56;;;;;;;;;;;;;;;3.36;100.00;99606.34;8375560;28;19924;-82
2022/01/06 02:13:59;;;;;;;;;;;;;;;3.30;100.00;99609.88;8367527;28;19928;-83
2022/01/06 02:18:01;;;;;;;;;;;;;;;3.24;100.00;99610.72;8384761;28;19932;-84
2022/01/06 02:22:02;;;;;;;;;;;;;;;3.13;100.00;99607.56;8367309;28;19921;-83
2022/01/06 02:26:04;;;;;;;;;;;;;;;3.02;100.00;99600.00;8377415;28;19931;-82
2022/01/06 02:30:07;;;;;;;;;;;;;;;2.89;100.00;99617.16;8388130;28;20646;-83
2022/01/06 02:34:09;;;;;;;;;;;;;;;2.76;100.00;99614.38;8357202;28;20007;-83
2022/01/06 02:38:11;;;;;;;;;;;;;;;2.65;100.00;99623.13;8378072;28;19942;-83
2022/01/06 02:42:13;;;;;;;;;;;;;;;2.61;100.00;99632.72;8376106;28;19920;-81
2022/01/06 02:46:14;;;;;;;;;;;;;;;2.54;100.00;99618.28;8368396;28;20423;-82
2022/01/06 02:50:16;;;;;;;;;;;;;;;2.41;100.00;99627.19;8389164;28;20015;-83
2022/01/06 02:54:19;;;;;;;;;;;;;;;2.33;100.00;99632.81;8369188;28;19920;-82
2022/01/06 02:58:21;;;;;;;;;;;;;;;2.34;100.00;99642.63;8371546;28;19967;-83
2022/01/06 03:02:23;;;;;;;;;;;;;;;2.36;100.00;99638.69;8377193;28;19920;-84
2022/01/06 03:06:24;;;;;;;;;;;;;;;2.40;100.00;99655.44;8359329;28;20062;-82
2022/01/06 03:10:27;;;;;;;;;;;;;;;2.52;100.00;99653.81;8368112;28;20300;-82
2022/01/06 03:14:30;;;;;;;;;;;;;;;2.66;100.00;99660.19;8372045;28;19964;-83
2022/01/06 03:18:31;;;;;;;;;;;;;;;2.76;100.00;99663.34;8366331;28;20698;-82
2022/01/06 03:22:33;;;;;;;;;;;;;;;2.86;100.00;99665.72;8375779;28;19959;-83
2022/01/06 03:26:34;;;;;;;;;;;;;;;3.00;100.00;99681.03;8369991;28;20301;-83
2022/01/06 03:30:36;;;;;;;;;;;;;;;3.07;100.00;99675.63;8366062;28;19979;-83
2022/01/06 03:34:38;;;;;;;;;;;;;;;2.92;100.00;99675.78;8384397;28;19993;-84
2022/01/06 03:38:40;;;;;;;;;;;;;;;2.75;100.00;99680.72;8386611;28;19920;-83
2022/01/06 03:42:42;;;;;;;;;;;;;;;2.68;100.00;99693.47;8364931;28;19956;-84
2022/01/06 03:46:43;;;;;;;;;;;;;;;2.78;100.00;99695.81;8363116;28;19931;-81
2022/01/06 03:50:45;;;;;;;;;;;;;;;2.85;100.00;99702.13;8382085;28;19962;-82
2022/01/06 03:54:46;;;;;;;;;;;;;;;2.97;100.00;99712.25;8377092;28;19931;-82
2022/01/06 03:58:49;;;;;;;;;;;;;;;2.98;100.00;99713.06;8374855;28;19959;-82
2022/01/06 04:02:51;;;;;;;;;;;;;;;2.85;100.00;99707.56;8380770;28;19956;-84
2022/01/06 04:06:53;;;;;;;;;;;;;;;2.74;100.00;99712.53;8383253;28;20298;-83
2022/01/06 04:10:54;;;;;;;;;;;;;;;2.71;100.00;99715.66;8377258;28;20298;-83
2022/01/06 04:14:56;;;;;;;;;;;;;;;2.72;100.00;99719.22;8383231;28;20016;-83
2022/01/06 04:18:57;;;;;;;;;;;;;;;2.74;100.00;99728.88;8373617;28;19921;-81
2022/01/06 04:22:59;;;;;;;;;;;;;;;2.80;100.00;99737.28;8358065;28;20051;-81
2022/01/06 04:27:01;;;;;;;;;;;;;;;2.79;100.00;99739.13;8371937;28;19924;-83
2022/01/06 04:31:02;;;;;;;;;;;;;;;2.80;100.00;99748.16;8380899;28;19948;-82
2022/01/06 04:35:05;;;;;;;;;;;;;;;2.82;100.00;99763.22;8357731;28;19948;-83
2022/01/06 04:39:06;;;;;;;;;;;;;;;2.80;100.00;99749.00;8365264;28;19921;-82
2022/01/06 04:43:08;;;;;;;;;;;;;;;2.81;100.00;99742.50;8361579;28;19955;-81
2022/01/06 04:47:09;;;;;;;;;;;;;;;2.80;100.00;99765.31;8354001;28;19971;-82
2022/01/06 04:51:11;;;;;;;;;;;;;;;2.76;100.00;99764.03;8367101;28;19921;-82
2022/01/06 04:55:12;;;;;;;;;;;;;;;2.76;100.00;99768.63;8370903;28;19920;-82
2022/01/06 04:59:14;;;;;;;;;;;;;;;2.71;100.00;99770.09;8362829;28;20020;-83
2022/01/06 05:03:15;;;;;;;;;;;;;;;2.53;100.00;99768.91;8379589;28;19940;-83
2022/01/06 05:07:17;;;;;;;;;;;;;;;2.33;100.00;99782.38;8371926;28;19924;-82
2022/01/06 05:11:19;;;;;;;;;;;;;;;2.16;100.00;99785.34;8352294;28;19927;-84
2022/01/06 05:15:21;;;;;;;;;;;;;;;2.00;100.00;99788.38;8376730;28;19924;-82
2022/01/06 05:19:23;;;;;;;;;;;;;;;1.85;100.00;99799.28;8361357;28;19927;-83
2022/01/06 05:23:24;;;;;;;;;;;;;;;1.73;100.00;99790.81;8366019;28;20158;-83
2022/01/06 05:27:26;;;;;;;;;;;;;;;1.60;100.00;99798.81;8353728;28;19964;-83
2022/01/06 05:31:28;;;;;;;;;;;;;;;1.49;100.00;99802.03;8363423;28;19946;-84
2022/01/06 05:35:29;;;;;;;;;;;;;;;1.42;100.00;99793.78;8361348;28;19932;-84
2022/01/06 05:39:31;;;;;;;;;;;;;;;1.40;100.00;99795.00;8367378;28;19925;-82
2022/01/06 05:43:32;;;;;;;;;;;;;;;1.39;100.00;99801.50;8362313;28;19960;-81
2022/01/06 05:47:34;;;;;;;;;;;;;;;1.48;100.00;99808.47;8362349;28;19921;-82
2022/01/06 05:51:36;;;;;;;;;;;;;;;1.62;100.00;99809.50;8364785;28;19986;-82
2022/01/06 05:55:37;;;;;;;;;;;;;;;1.71;100.00;99808.34;8358925;28;19948;-81
2022/01/06 05:59:39;;;;;;;;;;;;;;;1.86;100.00;99824.59;8350991;28;19928;-81
2022/01/06 06:03:40;;;;;;;;;;;;;;;1.94;100.00;99835.34;8355431;28;20409;-82
2022/01/06 06:07:41;;;;;;;;;;;;;;;1.96;100.00;99838.69;8371076;28;19992;-81
2022/01/06 06:11:43;;;;;;;;;;;;;;;2.01;100.00;99847.09;8370331;28;19925;-81
2022/01/06 06:15:44;;;;;;;;;;;;;;;2.05;100.00;99848.38;8369443;28;20370;-82
2022/01/06 06:19:46;;;;;;;;;;;;;;;2.13;100.00;99861.03;8367815;28;19924;-81
2022/01/06 06:23:47;;;;;;;;;;;;;;;2.13;100.00;99867.31;8377204;28;19959;-82
2022/01/06 06:27:49;;;;;;;;;;;;;;;2.05;100.00;99864.69;8395568;28;19995;-83
2022/01/06 06:31:50;;;;;;;;;;;;;;;1.95;100.00;99872.34;8397309;28;19924;-82
2022/01/06 06:35:52;;;;;;;;;;;;;;;1.82;100.00;99870.31;8361539;28;19927;-82
2022/01/06 06:39:54;;;;;;;;;;;;;;;1.78;100.00;99882.59;8372966;28;20017;-82
2022/01/06 06:43:55;;;;;;;;;;;;;;;1.85;100.00;99882.69;8364780;28;19964;-81
2022/01/06 06:47:57;;;;;;;;;;;;;;;1.96;100.00;99887.59;8372591;28;19933;-82
2022/01/06 06:51:59;;;;;;;;;;;;;;;2.04;100.00;99892.94;8372696;28;19986;-82
2022/01/06 06:56:00;;;;;;;;;;;;;;;2.12;100.00;99895.53;8373231;28;20035;-82
2022/01/06 07:00:04;;;;;;;;;;;;;;;2.19;100.00;99888.28;8370914;28;19963;-81
2022/01/06 07:04:05;;;;;;;;;;;;;;;2.26;100.00;99908.22;8355105;28;19975;-82
2022/01/06 07:08:07;;;;;;;;;;;;;;;2.36;100.00;99915.22;8376349;28;19920;-82
2022/01/06 07:12:09;;;;;;;;;;;;;;;2.46;100.00;99921.16;8395944;28;19920;-82
2022/01/06 07:16:10;;;;;;;;;;;;;;;2.56;100.00;99918.13;8371349;28;20001;-82
2022/01/06 07:20:12;;;;;;;;;;;;;;;2.65;100.00;99936.84;8367194;28;19927;-83
2022/01/06 07:24:13;;;;;;;;;;;;;;;2.74;100.00;99930.22;8378640;28;19921;-83
2022/01/06 07:28:15;;;;;;;;;;;;;;;2.82;100.00;99933.84;8369299;28;20436;-83
2022/01/06 07:32:16;;;;;;;;;;;;;;;2.89;100.00;99932.03;8367435;28;19928;-83
2022/01/06 07:36:18;;;;;;;;;;;;;;;2.94;100.00;99934.97;8369318;28;19921;-84
2022/01/06 07:40:20;;;;;;;;;;;;;;;2.95;100.00;99942.13;8372846;28;20431;-84
2022/01/06 07:44:21;;;;;;;;;;;;;;;2.96;100.00;99952.81;8362486;28;19971;-82
2022/01/06 07:48:36;;;;;;;;;;;;;;;3.01;100.00;99952.22;8370496;28;19955;-85
2022/01/06 07:52:38;;;;;;;;;;;;;;;3.02;100.00;99962.06;8369079;28;19968;-82
2022/01/06 07:56:39;;;;;;;;;;;;;;;3.08;100.00;99969.44;8371060;28;19951;-81
2022/01/06 08:00:41;;;;;;;;;;;;;;;3.13;100.00;99977.88;8358383;28;19959;-82
2022/01/06 08:04:42;;;;;;;;;;;;;;;3.16;100.00;99982.91;8350021;28;20019;-81
2022/01/06 08:08:44;;;;;;;;;;;;;;;3.20;100.00;99986.91;8344630;28;19928;-80
2022/01/06 08:12:46;;;;;;;;;;;;;;;3.27;100.00;100002.47;8371550;28;19947;-81
2022/01/06 08:16:47;;;;;;;;;;;;;;;3.26;100.00;99998.06;8362943;28;19924;-80
2022/01/06 08:20:49;;;;;;;;;;;;;;;3.32;100.00;100002.72;8369795;28;19925;-81
2022/01/06 08:24:53;;;;;;;;;;;;;;;3.34;100.00;100001.50;8373541;28;19931;-81
2022/01/06 08:28:55;;;;;;;;;;;;;;;3.36;100.00;100004.00;8358660;28;19935;-81
2022/01/06 08:32:56;;;;;;;;;;;;;;;3.37;100.00;100002.97;8360226;28;20027;-81
2022/01/06 08:36:58;;;;;;;;;;;;;;;3.24;100.00;100011.88;8384147;28;19921;-81
2022/01/06 08:40:59;;;;;;;;;;;;;;;3.08;100.00;100023.91;8370176;28;19945;-82
2022/01/06 08:45:02;;;;;;;;;;;;;;;2.94;100.00;100022.09;8356374;28;19928;-80
2022/01/06 08:49:06;;;;;;;;;;;;;;;2.81;100.00;100030.13;8368937;28;19921;-82
2022/01/06 08:53:07;;;;;;;;;;;;;;;2.77;100.00;100035.13;8372203;28;19921;-82
2022/01/06 08:57:09;;;;;;;;;;;;;;;2.76;100.00;100035.31;8369089;28;19932;-81
2022/01/06 09:01:12;;;;;;;;;;;;;;;2.76;100.00;100044.31;8372834;28;20004;-81
2022/01/06 09:05:14;;;;;;;;;;;;;;;2.83;100.00;100047.13;8379526;28;19920;-81
2022/01/06 09:09:16;;;;;;;;;;;;;;;2.90;100.00;100050.75;8371414;28;19964;-82
2022/01/06 09:13:18;;;;;;;;;;;;;;;2.86;100.00;100060.34;8380600;28;19924;-81
2022/01/06 09:17:21;;;;;;;;;;;;;;;2.80;100.00;100058.41;8354999;28;20365;-81
2022/01/06 09:21:24;;;;;;;;;;;;;;;2.81;100.00;100068.25;8366698;28;19931;-82
2022/01/06 09:25:25;;;;;;;;;;;;;;;2.92;100.00;100067.72;8393578;28;19927;-81
2022/01/06 09:29:27;;;;;;;;;;;;;;;3.17;100.00;100069.00;8377890;28;20015;-81
2022/01/06 09:33:28;;;;;;;;;;;;;;;3.60;100.00;100074.41;8383958;28;19984;-81
2022/01/06 09:37:30;;;;;;;;;;;;;;;3.87;100.00;100071.88;8375135;28;19924;-82
2022/01/06 09:41:31;;;;;;;;;;;;;;;4.11;100.00;100076.00;8361470;28;19944;-81
2022/01/06 09:45:35;;;;;;;;;;;;;;;4.15;98.13;100079.16;8376077;28;19920;-80
2022/01/06 09:49:38;;;;;;;;;;;;;;;4.20;97.16;100090.31;8366734;28;19954;-80
2022/01/06 09:53:40;;;;;;;;;;;;;;;4.24;96.99;100094.31;8366140;28;19924;-79
2022/01/06 09:58:01;;;;;;;;;;;;;;;4.25;96.76;100096.88;8359363;28;19925;-79
2022/01/06 10:02:02;;;;;;;;;;;;;;;4.39;96.72;100092.28;8370180;28;19925;-79
2022/01/06 10:06:30;;;;;;;;;;;;;;;4.51;95.76;100098.84;8383707;28;19995;-79
2022/01/06 10:10:34;;;;;;;;;;;;;;;4.38;93.82;100097.97;8377193;28;19924;-79
2022/01/06 10:14:46;;;;;;;;;;;;;;;4.53;94.24;100099.50;8375807;28;19925;-79
2022/01/06 10:18:53;;;;;;;;;;;;;;;4.67;93.67;100096.81;8360945;28;19932;-79
2022/01/06 10:22:56;;;;;;;;;;;;;;;4.63;93.62;100109.19;8387246;28;20538;-80
2022/01/06 10:27:00;;;;;;;;;;;;;;;4.75;92.98;100113.84;8366974;28;19952;-79
2022/01/06 10:31:05;;;;;;;;;;;;;;;4.56;92.60;100100.97;8382675;28;19921;-78
2022/01/06 10:35:07;;;;;;;;;;;;;;;4.41;93.05;100109.31;8376317;28;19925;-79
2022/01/06 10:39:09;;;;;;;;;;;;;;;4.37;92.51;100109.91;8373008;28;19921;-79
2022/01/06 10:43:10;;;;;;;;;;;;;;;4.46;93.05;100115.00;8375859;28;20427;-79
2022/01/06 10:47:12;;;;;;;;;;;;;;;4.80;91.96;100105.06;8374986;28;19949;-78
2022/01/06 10:51:13;;;;;;;;;;;;;;;5.21;91.33;100102.22;8371571;28;19921;-78
2022/01/06 10:55:16;;;;;;;;;;;;;;;5.33;86.04;100099.72;8365074;28;20003;-79
2022/01/06 10:59:23;;;;;;;;;;;;;;;5.69;86.11;100098.47;8389341;28;20404;-79
2022/01/06 11:03:26;;;;;;;;;;;;;;;5.67;81.82;100097.81;8365941;28;20420;-78
2022/01/06 11:07:27;;;;;;;;;;;;;;;5.41;82.97;100096.78;8370150;28;20338;-78
2022/01/06 11:11:44;;;;;;;;;;;;;;;5.02;83.77;100106.56;8390080;28;19928;-78
2022/01/06 11:15:48;;;;;;;;;;;;;;;4.92;83.49;100118.97;8375893;28;19956;-80
2022/01/06 11:19:50;;;;;;;;;;;;;;;4.98;81.59;100112.69;8364117;28;19921;-79
2022/01/06 11:24:24;;;;;;;;;;;;;;;4.77;81.02;100108.19;8374262;28;19927;-79
2022/01/06 11:28:29;;;;;;;;;;;;;;;4.59;81.02;100102.47;8346474;28;20561;-78
2022/01/06 11:32:31;;;;;;;;;;;;;;;4.69;83.45;100108.38;8383979;28;19956;-79
2022/01/06 11:36:35;;;;;;;;;;;;;;;4.63;83.49;100112.75;8379929;28;19920;-78
2022/01/06 11:40:40;;;;;;;;;;;;;;;4.64;84.88;100109.00;8369123;28;19925;-79
2022/01/06 11:44:54;;;;;;;;;;;;;;;4.76;84.16;100103.81;8382567;28;19955;-79
2022/01/06 11:48:58;;;;;;;;;;;;;;;4.91;nan;100106.38;8386873;28;19960;-78
2022/01/06 11:53:00;;;;;;;;;;;;;;;5.16;85.12;100098.44;8386665;28;19929;-78
2022/01/06 11:57:02;;;;;;;;;;;;;;;5.32;83.67;100100.75;8365145;28;20373;-78
2022/01/06 12:01:08;;;;;;;;;;;;;;;5.34;81.80;100095.91;8390202;28;19924;-78
2022/01/06 12:05:10;;;;;;;;;;;;;;;5.62;82.74;100092.13;8390084;28;19925;-78
2022/01/06 12:09:16;;;;;;;;;;;;;;;5.84;81.79;100100.97;8372104;28;19936;-78
2022/01/06 12:13:18;;;;;;;;;;;;;;;6.02;81.21;100101.19;8376273;28;19951;-79
2022/01/06 12:17:23;;;;;;;;;;;;;;;6.27;79.87;100095.03;8382838;28;19921;-78
2022/01/06 12:21:26;;;;;;;;;;;;;;;6.24;77.53;100096.28;8380329;28;19920;-78
2022/01/06 12:25:27;;;;;;;;;;;;;;;6.48;79.86;100096.66;8367873;28;19932;-79
2022/01/06 12:29:32;;;;;;;;;;;;;;;6.45;77.68;100094.34;8379984;28;19921;-79
2022/01/06 12:33:45;;;;;;;;;;;;;;;6.48;77.59;100093.91;8369423;28;19925;-78
2022/01/06 12:37:56;;;;;;;;;;;;;;;6.64;79.27;100100.81;8375642;28;19928;-78
2022/01/06 12:42:01;;;;;;;;;;;;;;;6.60;75.36;100094.91;8373443;28;20667;-79
2022/01/06 12:46:03;;;;;;;;;;;;;;;6.84;74.34;100087.84;8383323;28;19920;-78
2022/01/06 12:50:05;;;;;;;;;;;;;;;7.35;73.26;100099.75;8365719;28;20557;-78
2022/01/06 12:54:10;;;;;;;;;;;;;;;7.45;71.46;100089.16;8369330;28;19921;-79
2022/01/06 12:58:23;;;;;;;;;;;;;;;7.48;69.41;100089.53;8374339;28;19966;-79
2022/01/06 13:02:24;;;;;;;;;;;;;;;7.51;68.57;100086.34;8369775;28;20368;-81
2022/01/06 13:06:28;;;;;;;;;;;;;;;7.40;65.63;100091.72;8372728;28;19979;-80
2022/01/06 13:10:30;;;;;;;;;;;;;;;7.24;66.15;100096.69;8385271;28;19920;-79
2022/01/06 13:14:35;;;;;;;;;;;;;;;7.42;67.00;100103.31;8371504;28;19927;-78
2022/01/06 13:18:38;;;;;;;;;;;;;;;7.58;62.65;100101.91;8380054;28;19925;-78
2022/01/06 13:26:52;;;;;;;;;;;;;;;7.63;63.53;100097.44;8370637;28;19925;-78
2022/01/06 13:30:54;;;;;;;;;;;;;;;7.51;62.60;100108.28;8386686;28;19924;-78
2022/01/06 13:35:04;;;;;;;;;;;;;;;7.16;60.46;100099.69;8367550;28;19924;-79
2022/01/06 13:39:07;;;;;;;;;;;;;;;6.72;63.05;100112.38;8379380;28;19940;-80
2022/01/06 13:43:13;;;;;;;;;;;;;;;6.53;61.01;100116.00;8381026;28;19924;-78
2022/01/06 13:47:27;;;;;;;;;;;;;;;6.11;62.45;100118.22;8365163;28;19932;-78
2022/01/06 13:51:29;;;;;;;;;;;;;;;5.71;65.19;100118.22;8378429;28;19920;-79
2022/01/06 13:55:30;;;;;;;;;;;;;;;5.55;66.65;100124.13;8359803;28;19936;-78
2022/01/06 13:59:32;;;;;;;;;;;;;;;5.35;68.32;100116.72;8361102;28;20445;-78
2022/01/06 14:03:44;;;;;;;;;;;;;;;5.12;69.81;100119.03;8345553;28;19925;-78
2022/01/06 14:07:45;;;;;;;;;;;;;;;4.94;70.88;100125.06;8357853;28;19967;-78
2022/01/06 14:11:47;;;;;;;;;;;;;;;4.80;71.48;100127.75;8376242;28;19959;-78
2022/01/06 14:15:48;;;;;;;;;;;;;;;4.66;72.82;100131.47;8362208;28;19968;-78
2022/01/06 14:19:50;;;;;;;;;;;;;;;4.62;73.18;100140.28;8339408;28;19942;-78
2022/01/06 14:23:51;;;;;;;;;;;;;;;4.66;73.52;100141.53;8354298;28;20368;-78
2022/01/06 14:27:53;;;;;;;;;;;;;;;4.67;72.75;100130.44;8362999;28;19971;-78
2022/01/06 14:31:55;;;;;;;;;;;;;;;4.71;72.37;100133.59;8362666;28;19982;-78
2022/01/06 14:35:57;;;;;;;;;;;;;;;4.72;72.98;100140.72;8368128;28;19925;-77
2022/01/06 14:40:10;;;;;;;;;;;;;;;4.71;72.64;100139.88;8373186;28;19924;-78
2022/01/06 14:44:11;;;;;;;;;;;;;;;4.69;72.26;100150.16;8376432;28;20258;-78
2022/01/06 14:48:13;;;;;;;;;;;;;;;4.72;73.04;100147.03;8363484;28;19959;-78
2022/01/06 14:52:17;;;;;;;;;;;;;;;4.67;73.03;100149.53;8356794;28;19935;-78
2022/01/06 14:56:19;;;;;;;;;;;;;;;4.61;73.60;100146.75;8346791;28;19920;-78
2022/01/06 15:00:20;;;;;;;;;;;;;;;4.56;74.15;100147.38;8358335;28;19972;-77
2022/01/06 15:04:22;;;;;;;;;;;;;;;4.48;75.24;100145.66;8361217;28;19925;-78
2022/01/06 15:08:23;;;;;;;;;;;;;;;4.38;76.51;100149.81;8376288;28;19971;-78
2022/01/06 15:12:25;;;;;;;;;;;;;;;4.25;77.82;100147.81;8381778;28;19920;-78
2022/01/06 15:16:27;;;;;;;;;;;;;;;4.14;77.94;100148.41;8360472;28;19921;-78
2022/01/06 15:20:30;;;;;;;;;;;;;;;4.01;78.40;100151.84;8357449;28;19924;-79
2022/01/06 15:24:31;;;;;;;;;;;;;;;3.84;79.67;100157.63;8361003;28;19959;-78
2022/01/06 15:28:33;;;;;;;;;;;;;;;3.67;80.72;100155.38;8365786;28;20100;-78
2022/01/06 15:32:34;;;;;;;;;;;;;;;3.47;82.00;100160.63;8360181;28;20626;-78
2022/01/06 15:36:37;;;;;;;;;;;;;;;3.28;82.23;100176.59;8365297;28;20019;-77
2022/01/06 15:40:39;;;;;;;;;;;;;;;3.08;82.68;100172.81;8370499;28;19920;-77
2022/01/06 15:44:40;;;;;;;;;;;;;;;2.90;85.84;100171.34;8364393;28;20317;-78
2022/01/06 15:48:42;;;;;;;;;;;;;;;2.79;85.54;100177.28;8361855;28;20488;-78
2022/01/06 15:52:43;;;;;;;;;;;;;;;2.67;84.58;100189.69;8358951;28;20023;-77
2022/01/06 15:56:46;;;;;;;;;;;;;;;2.51;85.79;100194.28;8329580;28;20045;-77
2022/01/06 16:05:01;;;;;;;;;;;;;;;2.21;86.97;100207.03;8359063;28;19932;-77
2022/01/06 16:09:03;;;;;;;;;;;;;;;2.09;87.98;100194.94;8371735;28;19921;-78
2022/01/06 16:13:07;;;;;;;;;;;;;;;1.99;88.05;100202.50;8372402;28;19921;-77
2022/01/06 16:17:11;;;;;;;;;;;;;;;1.88;88.82;100206.53;8337551;28;19928;-77
2022/01/06 16:21:13;;;;;;;;;;;;;;;1.78;89.52;100206.75;8375599;28;19964;-77
2022/01/06 16:25:14;;;;;;;;;;;;;;;1.68;89.02;100208.88;8359831;28;19928;-78
2022/01/06 16:29:16;;;;;;;;;;;;;;;1.63;89.90;100203.16;8375190;28;20027;-77
2022/01/06 16:33:18;;;;;;;;;;;;;;;1.54;89.99;100199.66;8365088;28;19928;-78
2022/01/06 16:37:19;;;;;;;;;;;;;;;1.46;90.45;100204.28;8381395;28;20015;-77
2022/01/06 16:41:22;;;;;;;;;;;;;;;1.40;90.35;100211.31;8383408;28;19981;-77
2022/01/06 16:45:24;;;;;;;;;;;;;;;1.35;90.56;100213.72;8365842;28;20027;-76
2022/01/06 16:49:26;;;;;;;;;;;;;;;1.28;91.04;100216.31;8367727;28;20371;-79
2022/01/06 16:53:27;;;;;;;;;;;;;;;1.23;91.08;100213.28;8355641;28;19967;-78
2022/01/06 16:57:29;;;;;;;;;;;;;;;1.21;92.00;100226.19;8360120;28;19924;-78
2022/01/06 17:01:30;;;;;;;;;;;;;;;1.14;91.48;100222.50;8366475;28;19924;-79
2022/01/06 17:05:33;;;;;;;;;;;;;;;1.10;91.75;100222.03;8359058;28;19994;-78
2022/01/06 17:09:39;;;;;;;;;;;;;;;1.07;91.99;100225.09;8380415;28;19924;-78
2022/01/06 17:13:41;;;;;;;;;;;;;;;1.09;92.45;100224.91;8390564;28;19975;-78
2022/01/06 17:17:42;;;;;;;;;;;;;;;1.07;92.28;100225.09;8356882;28;19927;-78
2022/01/06 17:21:44;;;;;;;;;;;;;;;1.08;92.76;100224.06;8367616;28;20392;-78
2022/01/06 17:25:45;;;;;;;;;;;;;;;1.06;92.59;100226.09;8357136;28;19963;-79
2022/01/06 17:29:47;;;;;;;;;;;;;;;1.06;92.11;100223.38;8368521;28;19935;-78
2022/01/06 17:33:53;;;;;;;;;;;;;;;1.01;92.03;100225.81;8366672;28;20378;-79
2022/01/06 17:37:54;;;;;;;;;;;;;;;1.01;92.22;100224.94;8380929;28;19966;-78
2022/01/06 17:41:56;;;;;;;;;;;;;;;0.97;92.31;100218.19;8381061;28;20009;-78
2022/01/06 17:46:07;;;;;;;;;;;;;;;0.96;92.81;100227.38;8368155;28;19959;-78
2022/01/06 17:50:09;;;;;;;;;;;;;;;0.96;92.87;100232.78;8377946;28;20385;-79
2022/01/06 17:54:10;;;;;;;;;;;;;;;0.95;92.74;100231.09;8363173;28;19944;-78
2022/01/06 17:58:13;;;;;;;;;;;;;;;0.89;93.17;100236.22;8359656;28;19922;-78
2022/01/06 18:02:19;;;;;;;;;;;;;;;0.88;93.59;100230.94;8358011;28;20015;-78
2022/01/06 18:06:26;;;;;;;;;;;;;;;0.86;94.15;100236.56;8366125;28;19921;-78
2022/01/06 18:14:48;;;;;;;;;;;;;;;0.87;94.50;100232.81;8371258;28;20286;-78
2022/01/06 18:23:56;;;;;;;;;;;;;;;0.87;94.92;100224.69;8366033;28;19932;-78
2022/01/06 18:27:58;;;;;;;;;;;;;;;0.87;94.80;100224.69;8360497;28;20332;-78
2022/01/06 18:31:59;;;;;;;;;;;;;;;0.87;94.96;100232.81;8373695;28;19920;-79
2022/01/06 18:36:01;;;;;;;;;;;;;;;0.86;94.97;100235.69;8368728;28;20334;-79
2022/01/06 18:40:03;;;;;;;;;;;;;;;0.83;95.75;100233.34;8380468;28;19942;-78
2022/01/06 18:44:05;;;;;;;;;;;;;;;0.80;95.26;100239.97;8373424;28;19928;-78
2022/01/06 18:48:06;;;;;;;;;;;;;;;0.80;95.73;100225.56;8359894;28;19920;-78
2022/01/06 18:52:08;;;;;;;;;;;;;;;0.79;95.52;100230.16;8383430;28;19928;-78
2022/01/06 18:56:10;;;;;;;;;;;;;;;0.78;95.73;100236.59;8385057;28;20061;-78
2022/01/06 19:00:12;;;;;;;;;;;;;;;0.76;95.89;100233.22;8366581;28;20054;-78
2022/01/06 19:04:15;;;;;;;;;;;;;;;0.75;96.19;100234.25;8379619;28;19924;-79
2022/01/06 19:08:18;;;;;;;;;;;;;;;0.74;96.52;100240.66;8364997;28;20412;-78
2022/01/06 19:12:20;;;;;;;;;;;;;;;0.75;96.83;100234.25;8383348;28;19992;-78
2022/01/06 19:16:25;;;;;;;;;;;;;;;0.75;96.94;100241.53;8363643;28;19921;-78
2022/01/06 19:20:29;;;;;;;;;;;;;;;0.74;96.81;100237.94;8382068;28;20332;-77
2022/01/06 19:24:33;;;;;;;;;;;;;;;0.75;96.95;100236.94;8397868;28;20023;-78
2022/01/06 19:28:34;;;;;;;;;;;;;;;0.74;97.10;100231.69;8371200;28;19924;-78
2022/01/06 19:32:37;;;;;;;;;;;;;;;0.73;97.03;100238.97;8363881;28;19920;-78
2022/01/06 19:36:39;;;;;;;;;;;;;;;0.72;96.96;100237.31;8366684;28;19963;-77
2022/01/06 19:40:41;;;;;;;;;;;;;;;0.70;97.16;100233.91;8370704;28;19920;-78
2022/01/06 19:44:42;;;;;;;;;;;;;;;0.70;97.27;100233.06;8367683;28;19921;-78
2022/01/06 19:48:58;;;;;;;;;;;;;;;0.67;97.37;100236.97;8359619;28;19925;-78
2022/01/06 19:52:59;;;;;;;;;;;;;;;0.63;97.39;100239.19;8352776;28;19933;-79
2022/01/06 19:57:00;;;;;;;;;;;;;;;0.63;97.20;100241.06;8361822;28;19927;-79
2022/01/06 20:01:03;;;;;;;;;;;;;;;0.62;98.01;100233.94;8357514;28;19933;-79
2022/01/06 20:05:05;;;;;;;;;;;;;;;0.62;98.31;100231.22;8362962;28;19928;-79
2022/01/06 20:09:07;;;;;;;;;;;;;;;0.61;98.24;100229.53;8375981;28;19959;-79
2022/01/06 20:13:08;;;;;;;;;;;;;;;0.59;98.50;100226.16;8363005;28;19993;-78
2022/01/06 20:17:10;;;;;;;;;;;;;;;0.57;98.67;100223.63;8353662;28;20339;-78
2022/01/06 20:21:14;;;;;;;;;;;;;;;0.55;98.77;100219.41;8359331;28;19933;-77
2022/01/06 20:25:40;;;;;;;;;;;;;;;0.51;99.29;100212.66;8377408;28;19999;-77
2022/01/06 20:29:41;;;;;;;;;;;;;;;0.49;100.00;100212.81;8358383;28;19954;-77
2022/01/06 20:33:44;;;;;;;;;;;;;;;0.51;100.00;100210.78;8357599;28;19924;-78
2022/01/06 20:37:46;;;;;;;;;;;;;;;0.52;100.00;100195.34;8365356;28;19932;-78
2022/01/06 20:41:47;;;;;;;;;;;;;;;0.52;100.00;100200.75;8383545;28;20438;-78
2022/01/06 20:45:54;;;;;;;;;;;;;;;0.52;100.00;100192.63;8360545;28;19924;-78
2022/01/06 20:54:37;;;;;;;;;;;;;;;0.49;100.00;100209.25;8364470;28;20012;-78
2022/01/06 20:58:40;;;;;;;;;;;;;;;0.50;100.00;100195.50;8375337;28;19925;-79
2022/01/06 21:02:41;;;;;;;;;;;;;;;0.50;100.00;100205.50;8370339;28;19928;-78
2022/01/06 21:06:43;;;;;;;;;;;;;;;0.47;100.00;100211.28;8358849;28;20267;-79
2022/01/06 21:10:44;;;;;;;;;;;;;;;0.41;100.00;100216.38;8405861;28;19921;-80
2022/01/06 21:14:46;;;;;;;;;;;;;;;0.42;100.00;100226.22;8368593;28;19946;-79
2022/01/06 21:18:47;;;;;;;;;;;;;;;0.41;100.00;100229.09;8374386;28;20007;-79
2022/01/06 21:22:49;;;;;;;;;;;;;;;0.40;100.00;100225.53;8381569;28;19974;-79
2022/01/06 21:26:51;;;;;;;;;;;;;;;0.42;100.00;100225.38;8369908;28;19925;-78
2022/01/06 21:30:52;;;;;;;;;;;;;;;0.39;100.00;100237.41;8363503;28;19921;-78